createdAt,value
2024-01-26T00:03:50.773Z,9.33
2024-01-26T00:08:53.921Z,7.50
2024-01-26T00:13:56.787Z,6.60
2024-01-26T00:18:59.457Z,8.13
2024-01-26T00:24:02.525Z,7.17
2024-01-26T00:29:05.184Z,10.17
2024-01-26T00:34:08.160Z,9.70
2024-01-26T00:39:11.277Z,7.47
2024-01-26T00:44:13.876Z,8.37
2024-01-26T00:49:16.676Z,9.10
2024-01-26T00:54:19.481Z,7.10
2024-01-26T00:59:22.086Z,8.77
2024-01-26T01:04:26.183Z,8.10
2024-01-26T01:09:29.269Z,9.63
2024-01-26T01:14:31.966Z,12.20
2024-01-26T01:19:34.717Z,11.20
2024-01-26T01:24:37.875Z,10.27
2024-01-26T01:29:40.530Z,6.37
2024-01-26T01:34:44.675Z,7.07
2024-01-26T01:39:47.315Z,4.87
2024-01-26T01:44:50.188Z,4.83
2024-01-26T01:49:53.013Z,4.77
2024-01-26T01:55:03.377Z,3.70
2024-01-26T02:00:07.106Z,4.03
2024-01-26T02:05:09.913Z,4.03
2024-01-26T02:10:12.575Z,4.90
2024-01-26T02:15:15.493Z,6.10
2024-01-26T02:20:18.600Z,7.17
2024-01-26T02:25:21.326Z,5.87
2024-01-26T02:30:23.885Z,4.97
2024-01-26T02:35:26.541Z,4.77
2024-01-26T02:40:30.791Z,5.03
2024-01-26T02:45:33.601Z,5.00
2024-01-26T02:50:36.548Z,5.23
2024-01-26T02:55:39.186Z,4.40
2024-01-26T03:00:42.441Z,4.43
2024-01-26T03:05:45.214Z,6.27
2024-01-26T03:10:48.032Z,8.00
2024-01-26T03:15:53.411Z,10.00
2024-01-26T03:20:56.145Z,8.67
2024-01-26T03:25:58.929Z,8.30
2024-01-26T03:31:01.472Z,8.17
2024-01-26T03:36:04.434Z,7.40
2024-01-26T03:41:07.234Z,13.73
2024-01-26T03:46:09.862Z,9.83
2024-01-26T03:51:13.168Z,9.13
2024-01-26T03:56:15.868Z,6.63
2024-01-26T04:01:18.491Z,6.30
2024-01-26T04:06:21.528Z,5.63
2024-01-26T04:11:24.298Z,6.00
2024-01-26T04:16:26.951Z,7.77
2024-01-26T04:21:30.144Z,6.83
2024-01-26T04:26:32.882Z,5.50
2024-01-26T04:31:41.395Z,5.30
2024-01-26T04:36:50.464Z,7.00
2024-01-26T04:41:53.120Z,12.03
2024-01-26T04:46:56.579Z,12.20
2024-01-26T04:52:00.104Z,14.10
2024-01-26T04:57:02.682Z,13.40
2024-01-26T05:02:05.363Z,14.63
2024-01-26T05:07:09.005Z,10.87
2024-01-26T05:12:12.097Z,10.73
2024-01-26T05:17:14.780Z,6.53
2024-01-26T05:22:17.463Z,6.67
2024-01-26T05:27:20.086Z,7.20
2024-01-26T05:32:23.627Z,7.50
2024-01-26T05:37:26.264Z,7.50
2024-01-26T05:42:28.967Z,5.10
2024-01-26T05:47:31.678Z,5.90
2024-01-26T05:52:34.703Z,5.90
2024-01-26T05:57:37.240Z,5.67
2024-01-26T06:02:39.902Z,6.20
2024-01-26T06:07:42.590Z,9.50
2024-01-26T06:12:45.416Z,11.00
2024-01-26T06:17:49.139Z,5.77
2024-01-26T06:22:51.785Z,8.73
2024-01-26T06:27:54.371Z,10.90
2024-01-26T06:32:57.144Z,13.07
2024-01-26T06:38:00.327Z,12.20
2024-01-26T06:43:07.663Z,9.87
2024-01-26T06:48:10.539Z,9.33
2024-01-26T06:53:13.429Z,10.70
2024-01-26T06:58:16.087Z,6.70
2024-01-26T07:03:18.746Z,8.23
2024-01-26T07:08:21.439Z,7.57
2024-01-26T07:13:24.186Z,5.80
2024-01-26T07:18:27.037Z,5.87
2024-01-26T07:23:29.693Z,8.77
2024-01-26T07:28:32.343Z,8.40
2024-01-26T07:33:35.044Z,8.27
2024-01-26T07:38:37.931Z,9.87
2024-01-26T07:43:40.992Z,13.50
2024-01-26T07:48:43.695Z,12.80
2024-01-26T07:53:46.519Z,11.50
2024-01-26T07:58:49.245Z,12.17
2024-01-26T08:03:52.391Z,10.80
2024-01-26T08:08:55.214Z,14.03
2024-01-26T08:13:59.978Z,19.57
2024-01-26T08:19:03.191Z,14.63
2024-01-26T08:24:07.788Z,9.27
2024-01-26T08:29:13.602Z,10.53
2024-01-26T08:34:16.818Z,8.03
2024-01-26T08:39:19.724Z,16.80
2024-01-26T08:44:22.513Z,25.33
2024-01-26T08:49:25.425Z,18.70
2024-01-26T08:54:28.559Z,17.53
2024-01-26T08:59:31.317Z,12.70
2024-01-26T09:04:34.193Z,21.47
2024-01-26T09:09:36.933Z,19.93
2024-01-26T09:14:39.948Z,16.13
2024-01-26T09:19:43.375Z,12.13
2024-01-26T09:24:46.199Z,18.67
2024-01-26T09:29:49.250Z,14.43
2024-01-26T09:34:52.056Z,15.60
2024-01-26T09:39:55.062Z,16.00
2024-01-26T09:44:57.947Z,15.00
2024-01-26T09:50:04.507Z,13.73
2024-01-26T09:55:09.071Z,15.17
2024-01-26T10:00:12.757Z,14.53
2024-01-26T10:05:22.016Z,16.13
2024-01-26T10:10:25.147Z,13.93
2024-01-26T10:15:27.840Z,17.97
2024-01-26T10:20:30.554Z,17.60
2024-01-26T10:25:37.039Z,14.53
2024-01-26T10:30:46.029Z,13.40
2024-01-26T10:35:51.550Z,15.97
2024-01-26T10:41:06.763Z,13.40
2024-01-26T10:46:10.578Z,13.50
2024-01-26T10:51:15.825Z,10.37
2024-01-26T10:56:18.952Z,10.87
2024-01-26T11:01:21.775Z,12.67
2024-01-26T11:06:24.528Z,11.37
2024-01-26T11:11:34.157Z,20.33
2024-01-26T11:16:42.093Z,14.33
2024-01-26T11:21:47.905Z,16.60
2024-01-26T11:27:00.897Z,27.23
2024-01-26T11:32:17.442Z,26.17
2024-01-26T11:37:20.049Z,53.47
2024-01-26T11:42:24.558Z,16.27
2024-01-26T11:47:28.709Z,29.00
2024-01-26T11:52:33.506Z,18.27
2024-01-26T11:57:37.243Z,20.93
2024-01-26T12:02:39.952Z,19.27
2024-01-26T12:07:43.021Z,39.73
2024-01-26T12:12:49.178Z,25.33
2024-01-26T12:17:51.844Z,19.60
2024-01-26T12:22:57.641Z,16.97
2024-01-26T12:28:04.011Z,19.80
2024-01-26T12:33:11.642Z,12.43
2024-01-26T12:38:14.693Z,15.37
2024-01-26T12:43:17.776Z,12.63
2024-01-26T12:48:23.287Z,15.57
2024-01-26T12:53:25.977Z,14.70
2024-01-26T12:58:28.859Z,15.30
2024-01-26T13:03:33.185Z,14.00
2024-01-26T13:08:35.974Z,12.27
2024-01-26T13:13:42.557Z,14.37
2024-01-26T13:18:48.301Z,17.47
2024-01-26T13:23:51.518Z,21.07
2024-01-26T13:28:54.748Z,13.57
2024-01-26T13:33:57.422Z,15.47
2024-01-26T13:39:00.160Z,17.30
2024-01-26T13:44:02.793Z,12.93
2024-01-26T13:49:05.497Z,11.97
2024-01-26T13:54:08.347Z,14.77
2024-01-26T13:59:11.402Z,13.63
2024-01-26T14:04:14.133Z,12.70
2024-01-26T14:09:16.844Z,17.17
2024-01-26T14:14:21.458Z,19.07
2024-01-26T14:19:24.117Z,13.00
2024-01-26T14:24:28.149Z,17.23
2024-01-26T14:29:30.757Z,12.63
2024-01-26T14:34:33.479Z,17.00
2024-01-26T14:39:36.106Z,22.23
2024-01-26T14:44:39.887Z,20.20
2024-01-26T14:49:42.625Z,35.37
2024-01-26T14:54:46.505Z,57.07
2024-01-26T14:59:49.596Z,29.73
2024-01-26T15:04:52.143Z,32.17
2024-01-26T15:09:54.662Z,19.00
2024-01-26T15:14:57.221Z,39.47
2024-01-26T15:20:03.107Z,21.23
2024-01-26T15:25:06.429Z,26.77
2024-01-26T15:30:10.092Z,21.67
2024-01-26T15:35:13.505Z,19.10
2024-01-26T15:40:17.020Z,37.57
2024-01-26T15:45:19.800Z,22.10
2024-01-26T15:50:23.840Z,21.67
2024-01-26T15:55:26.422Z,21.10
2024-01-26T16:00:29.216Z,30.53
2024-01-26T16:05:31.886Z,26.13
2024-01-26T16:10:39.106Z,23.67
2024-01-26T16:15:41.654Z,18.27
2024-01-26T16:20:44.279Z,26.50
2024-01-26T16:25:46.873Z,21.60
2024-01-26T16:30:49.428Z,20.83
2024-01-26T16:35:52.199Z,20.03
2024-01-26T16:40:54.885Z,17.10
2024-01-26T16:45:57.466Z,29.23
2024-01-26T16:51:00.008Z,40.37
2024-01-26T16:56:02.640Z,35.53
2024-01-26T17:01:05.499Z,26.60
2024-01-26T17:06:08.498Z,48.67
2024-01-26T17:11:11.459Z,51.27
2024-01-26T17:16:14.015Z,22.83
2024-01-26T17:21:16.607Z,23.77
2024-01-26T17:26:19.180Z,46.63
2024-01-26T17:31:21.772Z,39.37
2024-01-26T17:36:25.217Z,37.37
2024-01-26T17:41:27.841Z,35.67
2024-01-26T17:46:33.312Z,31.97
2024-01-26T17:51:42.757Z,32.43
2024-01-26T17:56:45.326Z,46.47
2024-01-26T18:01:48.326Z,32.37
2024-01-26T18:06:51.312Z,34.43
2024-01-26T18:11:53.990Z,52.40
2024-01-26T18:16:56.631Z,52.93
2024-01-26T18:22:00.271Z,54.30
2024-01-26T18:27:04.051Z,29.30
2024-01-26T18:32:07.075Z,46.93
2024-01-26T18:37:09.959Z,54.03
2024-01-26T18:42:12.592Z,38.90
2024-01-26T18:47:15.226Z,23.87
2024-01-26T18:52:19.693Z,26.40
2024-01-26T18:57:23.553Z,27.53
2024-01-26T19:02:27.059Z,4.13
2024-01-26T19:07:29.857Z,3.30
2024-01-26T19:12:32.653Z,12.27
2024-01-26T19:17:35.428Z,6.43
2024-01-26T19:22:38.096Z,12.20
2024-01-26T19:27:40.989Z,10.40
2024-01-26T19:32:44.681Z,7.43
2024-01-26T19:37:47.216Z,4.07
2024-01-26T19:42:49.821Z,6.20
2024-01-26T19:47:52.630Z,7.47
2024-01-26T19:52:55.781Z,9.57
2024-01-26T19:57:58.848Z,5.40
2024-01-26T20:03:01.827Z,4.93
2024-01-26T20:08:04.799Z,2.10
2024-01-26T20:13:08.391Z,1.67
2024-01-26T20:18:11.262Z,1.60
2024-01-26T20:23:13.983Z,2.00
2024-01-26T20:28:18.134Z,1.77
2024-01-26T20:33:20.996Z,2.00
2024-01-26T20:38:23.838Z,2.00
2024-01-26T20:43:27.053Z,4.33
2024-01-26T20:48:30.230Z,3.43
2024-01-26T20:53:32.878Z,3.43
2024-01-26T20:58:35.564Z,3.60
2024-01-26T21:03:38.482Z,2.57
2024-01-26T21:08:41.231Z,2.27
2024-01-26T21:13:44.063Z,4.07
2024-01-26T21:18:46.696Z,3.00
2024-01-26T21:23:57.348Z,1.93
2024-01-26T21:29:00.122Z,2.40
2024-01-26T21:34:03.497Z,3.73
2024-01-26T21:39:06.264Z,4.70
2024-01-26T21:44:08.956Z,3.43
2024-01-26T21:49:12.648Z,3.80
2024-01-26T21:54:19.716Z,4.70
2024-01-26T21:59:22.569Z,3.83
2024-01-26T22:04:25.548Z,6.33
2024-01-26T22:14:31.821Z,4.30
2024-01-26T22:19:35.118Z,4.97
2024-01-26T22:24:38.007Z,4.57
2024-01-26T22:29:40.710Z,3.73
2024-01-26T22:34:43.291Z,2.83
2024-01-26T22:39:47.328Z,3.47
2024-01-26T22:44:49.962Z,3.27
2024-01-26T22:49:52.622Z,3.30
2024-01-26T22:54:55.290Z,2.50
2024-01-26T22:59:57.824Z,2.33
2024-01-26T23:05:00.831Z,2.10
2024-01-26T23:10:05.564Z,3.60
2024-01-26T23:15:08.642Z,2.83
2024-01-26T23:20:11.972Z,3.00
2024-01-26T23:25:14.533Z,3.77
2024-01-26T23:30:17.205Z,4.70
2024-01-26T23:35:20.348Z,3.50
2024-01-26T23:40:22.938Z,2.53
2024-01-26T23:45:28.286Z,2.97
2024-01-26T23:50:31.011Z,4.27
2024-01-26T23:55:33.768Z,4.63
